sensor_id;sensor_type;location;lat;lon;timestamp;temperature;humidity
44767;DHT22;30487;48.716;9.272;2022-07-17T00:00:24;20.50;62.80
44767;DHT22;30487;48.716;9.272;2022-07-17T00:02:50;20.50;62.90
44767;DHT22;30487;48.716;9.272;2022-07-17T00:05:16;20.50;62.80
44767;DHT22;30487;48.716;9.272;2022-07-17T00:07:41;20.50;62.90
44767;DHT22;30487;48.716;9.272;2022-07-17T00:10:07;20.50;63.30
44767;DHT22;30487;48.716;9.272;2022-07-17T00:12:33;20.40;63.80
44767;DHT22;30487;48.716;9.272;2022-07-17T00:14:59;20.30;64.70
44767;DHT22;30487;48.716;9.272;2022-07-17T00:17:24;20.30;65.20
44767;DHT22;30487;48.716;9.272;2022-07-17T00:19:50;20.20;65.40
44767;DHT22;30487;48.716;9.272;2022-07-17T00:22:15;20.20;65.40
44767;DHT22;30487;48.716;9.272;2022-07-17T00:24:41;20.10;65.30
44767;DHT22;30487;48.716;9.272;2022-07-17T00:27:06;20.10;65.50
44767;DHT22;30487;48.716;9.272;2022-07-17T00:29:32;20.00;65.60
44767;DHT22;30487;48.716;9.272;2022-07-17T00:31:57;20.00;66.50
44767;DHT22;30487;48.716;9.272;2022-07-17T00:34:23;19.90;65.80
44767;DHT22;30487;48.716;9.272;2022-07-17T00:36:49;19.70;66.10
44767;DHT22;30487;48.716;9.272;2022-07-17T00:39:14;19.40;67.00
44767;DHT22;30487;48.716;9.272;2022-07-17T00:41:40;19.20;67.20
44767;DHT22;30487;48.716;9.272;2022-07-17T00:44:06;19.10;68.30
44767;DHT22;30487;48.716;9.272;2022-07-17T00:46:32;19.10;69.00
44767;DHT22;30487;48.716;9.272;2022-07-17T00:48:57;19.10;69.00
44767;DHT22;30487;48.716;9.272;2022-07-17T00:51:23;19.10;68.80
44767;DHT22;30487;48.716;9.272;2022-07-17T00:53:49;19.10;68.80
44767;DHT22;30487;48.716;9.272;2022-07-17T00:56:15;19.10;68.70
44767;DHT22;30487;48.716;9.272;2022-07-17T00:58:42;19.10;68.60
44767;DHT22;30487;48.716;9.272;2022-07-17T01:01:07;19.10;68.30
44767;DHT22;30487;48.716;9.272;2022-07-17T01:03:33;19.10;68.50
44767;DHT22;30487;48.716;9.272;2022-07-17T01:05:58;19.10;68.70
44767;DHT22;30487;48.716;9.272;2022-07-17T01:08:24;19.10;68.60
44767;DHT22;30487;48.716;9.272;2022-07-17T01:10:50;19.10;68.90
44767;DHT22;30487;48.716;9.272;2022-07-17T01:13:16;19.10;68.50
44767;DHT22;30487;48.716;9.272;2022-07-17T01:15:41;19.10;68.70
44767;DHT22;30487;48.716;9.272;2022-07-17T01:18:08;19.10;68.60
44767;DHT22;30487;48.716;9.272;2022-07-17T01:20:35;19.10;68.30
44767;DHT22;30487;48.716;9.272;2022-07-17T01:23:01;19.20;68.30
44767;DHT22;30487;48.716;9.272;2022-07-17T01:25:26;19.20;68.30
44767;DHT22;30487;48.716;9.272;2022-07-17T01:27:52;19.20;67.90
44767;DHT22;30487;48.716;9.272;2022-07-17T01:30:17;19.30;67.70
44767;DHT22;30487;48.716;9.272;2022-07-17T01:32:43;19.30;67.60
44767;DHT22;30487;48.716;9.272;2022-07-17T01:35:09;19.20;67.70
44767;DHT22;30487;48.716;9.272;2022-07-17T01:37:35;19.20;67.50
44767;DHT22;30487;48.716;9.272;2022-07-17T01:40:01;19.20;67.70
44767;DHT22;30487;48.716;9.272;2022-07-17T01:42:27;19.20;67.70
44767;DHT22;30487;48.716;9.272;2022-07-17T01:44:53;19.20;67.60
44767;DHT22;30487;48.716;9.272;2022-07-17T01:47:19;19.20;67.60
44767;DHT22;30487;48.716;9.272;2022-07-17T01:49:48;19.20;67.80
44767;DHT22;30487;48.716;9.272;2022-07-17T01:52:14;19.20;67.80
44767;DHT22;30487;48.716;9.272;2022-07-17T01:54:40;19.20;67.70
44767;DHT22;30487;48.716;9.272;2022-07-17T01:57:06;19.20;67.90
44767;DHT22;30487;48.716;9.272;2022-07-17T01:59:32;19.20;67.90
44767;DHT22;30487;48.716;9.272;2022-07-17T02:01:57;19.30;68.10
44767;DHT22;30487;48.716;9.272;2022-07-17T02:04:23;19.30;68.20
44767;DHT22;30487;48.716;9.272;2022-07-17T02:06:48;19.20;68.80
44767;DHT22;30487;48.716;9.272;2022-07-17T02:09:14;19.10;69.10
44767;DHT22;30487;48.716;9.272;2022-07-17T02:11:39;19.00;69.80
44767;DHT22;30487;48.716;9.272;2022-07-17T02:14:05;18.90;69.90
44767;DHT22;30487;48.716;9.272;2022-07-17T02:16:30;18.90;70.40
44767;DHT22;30487;48.716;9.272;2022-07-17T02:18:56;18.80;70.60
44767;DHT22;30487;48.716;9.272;2022-07-17T02:21:21;18.70;70.70
44767;DHT22;30487;48.716;9.272;2022-07-17T02:23:47;18.70;70.80
44767;DHT22;30487;48.716;9.272;2022-07-17T02:26:12;18.60;70.90
44767;DHT22;30487;48.716;9.272;2022-07-17T02:28:38;18.50;71.30
44767;DHT22;30487;48.716;9.272;2022-07-17T02:31:03;18.50;71.80
44767;DHT22;30487;48.716;9.272;2022-07-17T02:33:29;18.40;72.00
44767;DHT22;30487;48.716;9.272;2022-07-17T02:35:54;18.40;71.70
44767;DHT22;30487;48.716;9.272;2022-07-17T02:38:20;18.30;72.20
44767;DHT22;30487;48.716;9.272;2022-07-17T02:40:45;18.30;72.30
44767;DHT22;30487;48.716;9.272;2022-07-17T02:43:11;18.30;72.50
44767;DHT22;30487;48.716;9.272;2022-07-17T02:45:36;18.40;72.60
44767;DHT22;30487;48.716;9.272;2022-07-17T02:48:02;18.40;72.50
44767;DHT22;30487;48.716;9.272;2022-07-17T02:50:27;18.30;72.60
44767;DHT22;30487;48.716;9.272;2022-07-17T02:52:53;18.10;72.40
44767;DHT22;30487;48.716;9.272;2022-07-17T02:55:19;18.00;72.80
44767;DHT22;30487;48.716;9.272;2022-07-17T02:57:45;17.90;73.20
44767;DHT22;30487;48.716;9.272;2022-07-17T03:00:14;17.40;73.70
44767;DHT22;30487;48.716;9.272;2022-07-17T03:02:41;17.40;74.90
44767;DHT22;30487;48.716;9.272;2022-07-17T03:05:06;17.40;75.10
44767;DHT22;30487;48.716;9.272;2022-07-17T03:07:32;17.50;75.10
44767;DHT22;30487;48.716;9.272;2022-07-17T03:09:57;17.60;75.10
44767;DHT22;30487;48.716;9.272;2022-07-17T03:12:23;17.70;75.10
44767;DHT22;30487;48.716;9.272;2022-07-17T03:14:48;17.70;74.70
44767;DHT22;30487;48.716;9.272;2022-07-17T03:17:14;17.70;74.80
44767;DHT22;30487;48.716;9.272;2022-07-17T03:19:40;17.70;74.80
44767;DHT22;30487;48.716;9.272;2022-07-17T03:22:05;17.70;74.80
44767;DHT22;30487;48.716;9.272;2022-07-17T03:24:31;17.70;74.80
44767;DHT22;30487;48.716;9.272;2022-07-17T03:26:56;17.70;74.60
44767;DHT22;30487;48.716;9.272;2022-07-17T03:29:22;17.50;74.80
44767;DHT22;30487;48.716;9.272;2022-07-17T03:31:47;17.50;75.20
44767;DHT22;30487;48.716;9.272;2022-07-17T03:34:13;17.50;75.40
44767;DHT22;30487;48.716;9.272;2022-07-17T03:36:39;17.50;75.50
44767;DHT22;30487;48.716;9.272;2022-07-17T03:39:05;17.50;75.60
44767;DHT22;30487;48.716;9.272;2022-07-17T03:41:30;17.50;75.80
44767;DHT22;30487;48.716;9.272;2022-07-17T03:43:56;17.50;75.70
44767;DHT22;30487;48.716;9.272;2022-07-17T03:46:21;17.50;75.70
44767;DHT22;30487;48.716;9.272;2022-07-17T03:48:47;17.50;75.70
44767;DHT22;30487;48.716;9.272;2022-07-17T03:51:13;17.60;75.70
44767;DHT22;30487;48.716;9.272;2022-07-17T03:53:38;17.60;75.80
44767;DHT22;30487;48.716;9.272;2022-07-17T03:56:04;17.50;75.90
44767;DHT22;30487;48.716;9.272;2022-07-17T03:58:30;17.50;75.80
44767;DHT22;30487;48.716;9.272;2022-07-17T04:00:56;17.60;76.10
44767;DHT22;30487;48.716;9.272;2022-07-17T04:03:21;17.60;76.30
44767;DHT22;30487;48.716;9.272;2022-07-17T04:05:47;17.70;76.50
44767;DHT22;30487;48.716;9.272;2022-07-17T04:08:12;17.70;76.30
44767;DHT22;30487;48.716;9.272;2022-07-17T04:10:38;17.70;76.30
44767;DHT22;30487;48.716;9.272;2022-07-17T04:13:04;17.70;76.50
44767;DHT22;30487;48.716;9.272;2022-07-17T04:15:29;17.70;76.20
44767;DHT22;30487;48.716;9.272;2022-07-17T04:18:13;17.70;76.50
44767;DHT22;30487;48.716;9.272;2022-07-17T04:20:39;17.70;76.90
44767;DHT22;30487;48.716;9.272;2022-07-17T04:23:04;17.70;76.80
44767;DHT22;30487;48.716;9.272;2022-07-17T04:25:30;17.70;76.80
44767;DHT22;30487;48.716;9.272;2022-07-17T04:27:56;17.70;76.60
44767;DHT22;30487;48.716;9.272;2022-07-17T04:30:21;17.80;76.70
44767;DHT22;30487;48.716;9.272;2022-07-17T04:32:47;17.80;76.90
44767;DHT22;30487;48.716;9.272;2022-07-17T04:35:12;17.70;77.00
44767;DHT22;30487;48.716;9.272;2022-07-17T04:37:38;17.70;77.00
44767;DHT22;30487;48.716;9.272;2022-07-17T04:40:04;17.70;77.30
44767;DHT22;30487;48.716;9.272;2022-07-17T04:42:29;17.70;77.40
44767;DHT22;30487;48.716;9.272;2022-07-17T04:44:55;17.80;77.40
44767;DHT22;30487;48.716;9.272;2022-07-17T04:47:20;17.70;77.20
44767;DHT22;30487;48.716;9.272;2022-07-17T04:49:46;17.70;76.90
44767;DHT22;30487;48.716;9.272;2022-07-17T04:52:11;17.70;77.10
44767;DHT22;30487;48.716;9.272;2022-07-17T04:54:37;17.70;77.10
44767;DHT22;30487;48.716;9.272;2022-07-17T04:57:02;17.80;77.30
44767;DHT22;30487;48.716;9.272;2022-07-17T04:59:28;17.70;77.30
44767;DHT22;30487;48.716;9.272;2022-07-17T05:01:53;17.70;77.70
44767;DHT22;30487;48.716;9.272;2022-07-17T05:04:19;17.60;79.00
44767;DHT22;30487;48.716;9.272;2022-07-17T05:06:44;17.60;79.50
44767;DHT22;30487;48.716;9.272;2022-07-17T05:09:10;17.50;79.90
44767;DHT22;30487;48.716;9.272;2022-07-17T05:11:35;17.50;80.90
44767;DHT22;30487;48.716;9.272;2022-07-17T05:14:01;17.50;79.20
44767;DHT22;30487;48.716;9.272;2022-07-17T05:16:27;17.60;78.40
44767;DHT22;30487;48.716;9.272;2022-07-17T05:18:53;17.50;78.10
44767;DHT22;30487;48.716;9.272;2022-07-17T05:21:18;17.40;78.20
44767;DHT22;30487;48.716;9.272;2022-07-17T05:23:44;17.20;78.60
44767;DHT22;30487;48.716;9.272;2022-07-17T05:26:10;17.20;79.40
44767;DHT22;30487;48.716;9.272;2022-07-17T05:28:35;17.20;79.30
44767;DHT22;30487;48.716;9.272;2022-07-17T05:31:01;17.00;79.90
44767;DHT22;30487;48.716;9.272;2022-07-17T05:33:26;16.90;81.20
44767;DHT22;30487;48.716;9.272;2022-07-17T05:35:52;16.90;82.10
44767;DHT22;30487;48.716;9.272;2022-07-17T05:38:17;17.00;81.30
44767;DHT22;30487;48.716;9.272;2022-07-17T05:40:43;17.10;80.90
44767;DHT22;30487;48.716;9.272;2022-07-17T05:43:08;17.20;81.40
44767;DHT22;30487;48.716;9.272;2022-07-17T05:45:34;17.20;80.60
44767;DHT22;30487;48.716;9.272;2022-07-17T05:47:59;17.40;80.90
44767;DHT22;30487;48.716;9.272;2022-07-17T05:50:25;17.30;80.20
44767;DHT22;30487;48.716;9.272;2022-07-17T05:52:50;17.30;80.00
44767;DHT22;30487;48.716;9.272;2022-07-17T05:55:16;17.40;79.60
44767;DHT22;30487;48.716;9.272;2022-07-17T05:57:41;17.30;79.60
44767;DHT22;30487;48.716;9.272;2022-07-17T06:00:07;17.20;79.70
44767;DHT22;30487;48.716;9.272;2022-07-17T06:02:33;17.20;79.90
44767;DHT22;30487;48.716;9.272;2022-07-17T06:04:58;17.20;80.50
44767;DHT22;30487;48.716;9.272;2022-07-17T06:07:23;17.20;81.70
44767;DHT22;30487;48.716;9.272;2022-07-17T06:09:49;17.20;82.10
44767;DHT22;30487;48.716;9.272;2022-07-17T06:12:14;17.30;81.60
44767;DHT22;30487;48.716;9.272;2022-07-17T06:14:40;17.40;80.80
44767;DHT22;30487;48.716;9.272;2022-07-17T06:17:05;17.50;80.80
44767;DHT22;30487;48.716;9.272;2022-07-17T06:19:31;17.60;80.70
44767;DHT22;30487;48.716;9.272;2022-07-17T06:21:56;17.80;79.80
44767;DHT22;30487;48.716;9.272;2022-07-17T06:24:22;17.90;79.60
44767;DHT22;30487;48.716;9.272;2022-07-17T06:26:47;18.10;79.50
44767;DHT22;30487;48.716;9.272;2022-07-17T06:29:13;18.20;79.10
44767;DHT22;30487;48.716;9.272;2022-07-17T06:31:38;18.30;79.00
44767;DHT22;30487;48.716;9.272;2022-07-17T06:34:04;18.40;79.20
44767;DHT22;30487;48.716;9.272;2022-07-17T06:36:29;18.50;78.90
44767;DHT22;30487;48.716;9.272;2022-07-17T06:38:55;18.60;78.70
44767;DHT22;30487;48.716;9.272;2022-07-17T06:41:20;18.70;78.40
44767;DHT22;30487;48.716;9.272;2022-07-17T06:43:46;18.70;78.20
44767;DHT22;30487;48.716;9.272;2022-07-17T06:46:11;18.90;78.00
44767;DHT22;30487;48.716;9.272;2022-07-17T06:48:37;19.00;77.70
44767;DHT22;30487;48.716;9.272;2022-07-17T06:51:02;19.10;77.20
44767;DHT22;30487;48.716;9.272;2022-07-17T06:53:28;19.20;75.50
44767;DHT22;30487;48.716;9.272;2022-07-17T06:55:53;19.20;75.60
44767;DHT22;30487;48.716;9.272;2022-07-17T06:58:19;19.30;75.10
44767;DHT22;30487;48.716;9.272;2022-07-17T07:00:44;19.30;75.50
44767;DHT22;30487;48.716;9.272;2022-07-17T07:03:10;19.50;75.10
44767;DHT22;30487;48.716;9.272;2022-07-17T07:05:35;19.60;75.70
44767;DHT22;30487;48.716;9.272;2022-07-17T07:08:01;19.70;75.60
44767;DHT22;30487;48.716;9.272;2022-07-17T07:10:26;19.90;75.40
44767;DHT22;30487;48.716;9.272;2022-07-17T07:12:52;20.00;73.60
44767;DHT22;30487;48.716;9.272;2022-07-17T07:15:17;20.20;73.70
44767;DHT22;30487;48.716;9.272;2022-07-17T07:17:43;20.30;72.10
44767;DHT22;30487;48.716;9.272;2022-07-17T07:20:09;20.40;72.80
44767;DHT22;30487;48.716;9.272;2022-07-17T07:22:34;20.60;73.00
44767;DHT22;30487;48.716;9.272;2022-07-17T07:25:00;20.70;72.80
44767;DHT22;30487;48.716;9.272;2022-07-17T07:27:25;20.90;72.40
44767;DHT22;30487;48.716;9.272;2022-07-17T07:29:51;21.00;71.30
44767;DHT22;30487;48.716;9.272;2022-07-17T07:32:16;21.10;71.00
44767;DHT22;30487;48.716;9.272;2022-07-17T07:34:42;21.20;71.10
44767;DHT22;30487;48.716;9.272;2022-07-17T07:37:07;21.40;71.00
44767;DHT22;30487;48.716;9.272;2022-07-17T07:39:33;21.50;71.20
44767;DHT22;30487;48.716;9.272;2022-07-17T07:41:58;21.60;69.90
44767;DHT22;30487;48.716;9.272;2022-07-17T07:44:25;21.60;69.80
44767;DHT22;30487;48.716;9.272;2022-07-17T07:46:50;21.80;68.60
44767;DHT22;30487;48.716;9.272;2022-07-17T07:49:16;21.90;67.40
44767;DHT22;30487;48.716;9.272;2022-07-17T07:51:42;22.00;68.30
44767;DHT22;30487;48.716;9.272;2022-07-17T07:54:08;22.20;68.10
44767;DHT22;30487;48.716;9.272;2022-07-17T07:56:33;22.30;68.30
44767;DHT22;30487;48.716;9.272;2022-07-17T07:58:59;22.50;68.00
44767;DHT22;30487;48.716;9.272;2022-07-17T08:01:24;22.60;68.60
44767;DHT22;30487;48.716;9.272;2022-07-17T08:03:50;22.60;68.70
44767;DHT22;30487;48.716;9.272;2022-07-17T08:06:15;22.80;68.30
44767;DHT22;30487;48.716;9.272;2022-07-17T08:08:41;22.90;67.80
44767;DHT22;30487;48.716;9.272;2022-07-17T08:11:06;23.10;68.40
44767;DHT22;30487;48.716;9.272;2022-07-17T08:13:32;23.20;68.00
44767;DHT22;30487;48.716;9.272;2022-07-17T08:15:57;23.40;67.50
44767;DHT22;30487;48.716;9.272;2022-07-17T08:18:24;23.50;67.20
44767;DHT22;30487;48.716;9.272;2022-07-17T08:20:51;23.50;64.60
44767;DHT22;30487;48.716;9.272;2022-07-17T08:23:16;23.70;65.10
44767;DHT22;30487;48.716;9.272;2022-07-17T08:25:42;23.70;64.00
44767;DHT22;30487;48.716;9.272;2022-07-17T08:28:09;23.80;64.60
44767;DHT22;30487;48.716;9.272;2022-07-17T08:30:34;24.00;64.50
44767;DHT22;30487;48.716;9.272;2022-07-17T08:33:01;24.10;65.30
44767;DHT22;30487;48.716;9.272;2022-07-17T08:35:27;24.20;64.00
44767;DHT22;30487;48.716;9.272;2022-07-17T08:37:52;24.40;64.40
44767;DHT22;30487;48.716;9.272;2022-07-17T08:40:19;24.50;63.60
44767;DHT22;30487;48.716;9.272;2022-07-17T08:42:45;24.60;63.80
44767;DHT22;30487;48.716;9.272;2022-07-17T08:45:13;24.80;64.90
44767;DHT22;30487;48.716;9.272;2022-07-17T08:47:39;24.90;63.90
44767;DHT22;30487;48.716;9.272;2022-07-17T08:50:05;25.00;63.80
44767;DHT22;30487;48.716;9.272;2022-07-17T08:52:31;25.20;64.00
44767;DHT22;30487;48.716;9.272;2022-07-17T08:54:57;25.30;63.80
44767;DHT22;30487;48.716;9.272;2022-07-17T08:57:22;25.40;63.10
44767;DHT22;30487;48.716;9.272;2022-07-17T08:59:48;25.60;62.50
44767;DHT22;30487;48.716;9.272;2022-07-17T09:02:13;25.70;62.30
44767;DHT22;30487;48.716;9.272;2022-07-17T09:04:39;25.70;60.40
44767;DHT22;30487;48.716;9.272;2022-07-17T09:07:05;25.80;60.40
44767;DHT22;30487;48.716;9.272;2022-07-17T09:09:30;25.90;60.40
44767;DHT22;30487;48.716;9.272;2022-07-17T09:11:57;26.00;60.40
44767;DHT22;30487;48.716;9.272;2022-07-17T09:14:24;26.20;59.90
44767;DHT22;30487;48.716;9.272;2022-07-17T09:16:50;26.30;58.90
44767;DHT22;30487;48.716;9.272;2022-07-17T09:19:29;26.50;58.50
44767;DHT22;30487;48.716;9.272;2022-07-17T09:22:14;26.40;57.90
44767;DHT22;30487;48.716;9.272;2022-07-17T09:25:01;26.60;57.50
44767;DHT22;30487;48.716;9.272;2022-07-17T09:27:30;26.70;57.00
44767;DHT22;30487;48.716;9.272;2022-07-17T09:30:01;26.80;58.00
44767;DHT22;30487;48.716;9.272;2022-07-17T09:32:31;26.90;56.10
44767;DHT22;30487;48.716;9.272;2022-07-17T09:34:58;27.00;57.10
44767;DHT22;30487;48.716;9.272;2022-07-17T09:37:25;27.10;57.10
44767;DHT22;30487;48.716;9.272;2022-07-17T09:39:51;27.10;54.80
44767;DHT22;30487;48.716;9.272;2022-07-17T09:42:26;27.20;56.10
44767;DHT22;30487;48.716;9.272;2022-07-17T09:47:21;27.40;55.70
44767;DHT22;30487;48.716;9.272;2022-07-17T09:49:47;27.50;55.50
44767;DHT22;30487;48.716;9.272;2022-07-17T09:52:13;27.60;54.80
44767;DHT22;30487;48.716;9.272;2022-07-17T09:54:40;27.60;55.00
44767;DHT22;30487;48.716;9.272;2022-07-17T09:57:05;27.70;54.60
44767;DHT22;30487;48.716;9.272;2022-07-17T09:59:31;27.80;55.50
44767;DHT22;30487;48.716;9.272;2022-07-17T10:02:00;28.00;55.20
44767;DHT22;30487;48.716;9.272;2022-07-17T10:04:26;28.10;54.40
44767;DHT22;30487;48.716;9.272;2022-07-17T10:06:52;28.20;53.60
44767;DHT22;30487;48.716;9.272;2022-07-17T10:09:18;28.40;53.30
44767;DHT22;30487;48.716;9.272;2022-07-17T10:11:43;28.40;53.90
44767;DHT22;30487;48.716;9.272;2022-07-17T10:14:10;28.50;53.60
44767;DHT22;30487;48.716;9.272;2022-07-17T10:16:36;28.60;53.50
44767;DHT22;30487;48.716;9.272;2022-07-17T10:19:14;28.70;52.80
44767;DHT22;30487;48.716;9.272;2022-07-17T10:21:39;28.70;51.50
44767;DHT22;30487;48.716;9.272;2022-07-17T10:24:16;28.80;52.00
44767;DHT22;30487;48.716;9.272;2022-07-17T10:26:42;28.90;52.10
44767;DHT22;30487;48.716;9.272;2022-07-17T10:31:51;29.10;49.80
44767;DHT22;30487;48.716;9.272;2022-07-17T10:34:17;29.10;49.00
44767;DHT22;30487;48.716;9.272;2022-07-17T10:36:43;29.20;48.20
44767;DHT22;30487;48.716;9.272;2022-07-17T10:39:15;29.30;48.70
44767;DHT22;30487;48.716;9.272;2022-07-17T10:41:41;29.40;48.90
44767;DHT22;30487;48.716;9.272;2022-07-17T10:44:07;29.50;49.10
44767;DHT22;30487;48.716;9.272;2022-07-17T10:46:33;29.70;48.90
44767;DHT22;30487;48.716;9.272;2022-07-17T10:49:01;29.80;49.00
44767;DHT22;30487;48.716;9.272;2022-07-17T10:51:29;29.90;48.60
44767;DHT22;30487;48.716;9.272;2022-07-17T10:53:58;29.90;49.50
44767;DHT22;30487;48.716;9.272;2022-07-17T10:56:27;30.00;48.90
44767;DHT22;30487;48.716;9.272;2022-07-17T10:58:53;30.00;48.50
44767;DHT22;30487;48.716;9.272;2022-07-17T11:01:22;30.10;48.60
44767;DHT22;30487;48.716;9.272;2022-07-17T11:03:48;30.20;49.00
44767;DHT22;30487;48.716;9.272;2022-07-17T11:08:44;30.20;47.10
44767;DHT22;30487;48.716;9.272;2022-07-17T11:11:11;30.30;46.10
44767;DHT22;30487;48.716;9.272;2022-07-17T11:13:36;30.30;46.30
44767;DHT22;30487;48.716;9.272;2022-07-17T11:16:02;30.40;46.50
44767;DHT22;30487;48.716;9.272;2022-07-17T11:18:27;30.40;46.70
44767;DHT22;30487;48.716;9.272;2022-07-17T11:20:55;30.50;46.70
44767;DHT22;30487;48.716;9.272;2022-07-17T11:23:21;30.60;47.30
44767;DHT22;30487;48.716;9.272;2022-07-17T11:25:53;30.70;47.30
44767;DHT22;30487;48.716;9.272;2022-07-17T11:30:54;30.80;46.70
44767;DHT22;30487;48.716;9.272;2022-07-17T11:33:19;30.80;47.30
44767;DHT22;30487;48.716;9.272;2022-07-17T11:35:47;30.70;46.10
44767;DHT22;30487;48.716;9.272;2022-07-17T11:38:13;30.50;46.60
44767;DHT22;30487;48.716;9.272;2022-07-17T11:40:45;30.60;46.00
44767;DHT22;30487;48.716;9.272;2022-07-17T11:43:11;30.80;45.20
44767;DHT22;30487;48.716;9.272;2022-07-17T11:45:36;30.70;44.20
44767;DHT22;30487;48.716;9.272;2022-07-17T11:48:02;30.90;45.00
44767;DHT22;30487;48.716;9.272;2022-07-17T11:50:28;31.00;45.70
44767;DHT22;30487;48.716;9.272;2022-07-17T11:52:53;31.30;47.10
44767;DHT22;30487;48.716;9.272;2022-07-17T11:55:25;31.70;46.10
44767;DHT22;30487;48.716;9.272;2022-07-17T11:57:59;32.20;45.50
44767;DHT22;30487;48.716;9.272;2022-07-17T12:00:25;32.50;43.70
44767;DHT22;30487;48.716;9.272;2022-07-17T12:03:04;32.70;43.20
44767;DHT22;30487;48.716;9.272;2022-07-17T12:05:32;32.60;43.00
44767;DHT22;30487;48.716;9.272;2022-07-17T12:07:57;32.70;41.40
44767;DHT22;30487;48.716;9.272;2022-07-17T12:10:24;32.70;42.30
44767;DHT22;30487;48.716;9.272;2022-07-17T12:12:57;32.70;43.30
44767;DHT22;30487;48.716;9.272;2022-07-17T12:18:06;33.00;42.30
44767;DHT22;30487;48.716;9.272;2022-07-17T12:20:41;32.80;42.80
44767;DHT22;30487;48.716;9.272;2022-07-17T12:23:07;33.00;43.60
44767;DHT22;30487;48.716;9.272;2022-07-17T12:25:33;33.50;43.30
44767;DHT22;30487;48.716;9.272;2022-07-17T12:27:58;33.90;43.60
44767;DHT22;30487;48.716;9.272;2022-07-17T12:30:24;34.30;44.00
44767;DHT22;30487;48.716;9.272;2022-07-17T12:32:49;34.80;44.20
44767;DHT22;30487;48.716;9.272;2022-07-17T12:35:15;34.80;43.20
44767;DHT22;30487;48.716;9.272;2022-07-17T12:37:41;35.20;43.50
44767;DHT22;30487;48.716;9.272;2022-07-17T12:40:07;35.70;43.90
44767;DHT22;30487;48.716;9.272;2022-07-17T12:42:32;35.80;43.60
44767;DHT22;30487;48.716;9.272;2022-07-17T12:44:58;35.70;43.30
44767;DHT22;30487;48.716;9.272;2022-07-17T12:47:23;35.70;42.40
44767;DHT22;30487;48.716;9.272;2022-07-17T12:49:49;35.60;41.50
44767;DHT22;30487;48.716;9.272;2022-07-17T12:52:14;35.60;42.40
44767;DHT22;30487;48.716;9.272;2022-07-17T12:54:40;35.20;41.50
44767;DHT22;30487;48.716;9.272;2022-07-17T12:57:06;35.20;41.90
44767;DHT22;30487;48.716;9.272;2022-07-17T12:59:32;35.10;41.10
44767;DHT22;30487;48.716;9.272;2022-07-17T13:01:58;34.70;41.80
44767;DHT22;30487;48.716;9.272;2022-07-17T13:04:23;34.90;41.90
44767;DHT22;30487;48.716;9.272;2022-07-17T13:06:49;35.40;41.70
44767;DHT22;30487;48.716;9.272;2022-07-17T13:09:15;36.10;41.90
44767;DHT22;30487;48.716;9.272;2022-07-17T13:11:43;36.90;41.90
44767;DHT22;30487;48.716;9.272;2022-07-17T13:14:09;36.80;42.00
44767;DHT22;30487;48.716;9.272;2022-07-17T13:16:38;36.40;40.80
44767;DHT22;30487;48.716;9.272;2022-07-17T13:19:04;36.20;41.60
44767;DHT22;30487;48.716;9.272;2022-07-17T13:21:30;36.20;42.10
44767;DHT22;30487;48.716;9.272;2022-07-17T13:23:55;36.10;41.90
44767;DHT22;30487;48.716;9.272;2022-07-17T13:26:21;35.50;41.10
44767;DHT22;30487;48.716;9.272;2022-07-17T13:28:46;35.10;42.10
44767;DHT22;30487;48.716;9.272;2022-07-17T13:31:12;35.00;42.20
44767;DHT22;30487;48.716;9.272;2022-07-17T13:33:38;35.20;41.90
44767;DHT22;30487;48.716;9.272;2022-07-17T13:36:03;35.20;42.10
44767;DHT22;30487;48.716;9.272;2022-07-17T13:38:29;35.20;42.10
44767;DHT22;30487;48.716;9.272;2022-07-17T13:40:54;35.10;42.40
44767;DHT22;30487;48.716;9.272;2022-07-17T13:43:20;34.90;41.70
44767;DHT22;30487;48.716;9.272;2022-07-17T13:45:45;34.60;41.50
44767;DHT22;30487;48.716;9.272;2022-07-17T13:48:11;34.30;41.50
44767;DHT22;30487;48.716;9.272;2022-07-17T13:50:36;34.10;41.90
44767;DHT22;30487;48.716;9.272;2022-07-17T13:53:02;33.80;42.40
44767;DHT22;30487;48.716;9.272;2022-07-17T13:55:27;33.00;41.20
44767;DHT22;30487;48.716;9.272;2022-07-17T13:57:53;32.80;42.20
44767;DHT22;30487;48.716;9.272;2022-07-17T14:00:18;32.70;42.40
44767;DHT22;30487;48.716;9.272;2022-07-17T14:02:44;32.70;43.10
44767;DHT22;30487;48.716;9.272;2022-07-17T14:05:10;32.70;44.30
44767;DHT22;30487;48.716;9.272;2022-07-17T14:07:36;32.80;42.80
44767;DHT22;30487;48.716;9.272;2022-07-17T14:10:02;32.80;42.80
44767;DHT22;30487;48.716;9.272;2022-07-17T14:12:27;32.70;41.70
44767;DHT22;30487;48.716;9.272;2022-07-17T14:14:53;32.40;42.40
44767;DHT22;30487;48.716;9.272;2022-07-17T14:17:19;32.30;43.40
44767;DHT22;30487;48.716;9.272;2022-07-17T14:19:44;32.30;43.00
44767;DHT22;30487;48.716;9.272;2022-07-17T14:22:10;32.30;43.70
44767;DHT22;30487;48.716;9.272;2022-07-17T14:24:36;32.20;42.80
44767;DHT22;30487;48.716;9.272;2022-07-17T14:27:01;32.20;42.80
44767;DHT22;30487;48.716;9.272;2022-07-17T14:29:27;32.20;42.80
44767;DHT22;30487;48.716;9.272;2022-07-17T14:31:52;32.20;43.90
44767;DHT22;30487;48.716;9.272;2022-07-17T14:34:18;32.20;44.30
44767;DHT22;30487;48.716;9.272;2022-07-17T14:36:44;32.20;44.50
44767;DHT22;30487;48.716;9.272;2022-07-17T14:39:10;32.20;44.10
44767;DHT22;30487;48.716;9.272;2022-07-17T14:41:35;32.20;43.50
44767;DHT22;30487;48.716;9.272;2022-07-17T14:44:01;32.20;44.40
44767;DHT22;30487;48.716;9.272;2022-07-17T14:46:26;32.10;44.90
44767;DHT22;30487;48.716;9.272;2022-07-17T14:48:52;32.00;43.00
44767;DHT22;30487;48.716;9.272;2022-07-17T14:51:18;32.00;43.40
44767;DHT22;30487;48.716;9.272;2022-07-17T14:53:43;32.00;43.50
44767;DHT22;30487;48.716;9.272;2022-07-17T14:56:09;32.00;43.30
44767;DHT22;30487;48.716;9.272;2022-07-17T14:58:34;32.00;44.00
44767;DHT22;30487;48.716;9.272;2022-07-17T15:01:00;31.90;43.90
44767;DHT22;30487;48.716;9.272;2022-07-17T15:03:25;31.90;43.50
44767;DHT22;30487;48.716;9.272;2022-07-17T15:05:51;31.90;43.60
44767;DHT22;30487;48.716;9.272;2022-07-17T15:08:16;31.90;43.40
44767;DHT22;30487;48.716;9.272;2022-07-17T15:10:42;31.80;44.50
44767;DHT22;30487;48.716;9.272;2022-07-17T15:13:07;31.70;42.80
44767;DHT22;30487;48.716;9.272;2022-07-17T15:15:33;31.70;44.10
44767;DHT22;30487;48.716;9.272;2022-07-17T15:17:58;31.60;44.30
44767;DHT22;30487;48.716;9.272;2022-07-17T15:20:24;31.70;43.20
44767;DHT22;30487;48.716;9.272;2022-07-17T15:22:49;31.80;43.50
44767;DHT22;30487;48.716;9.272;2022-07-17T15:25:15;31.70;43.80
44767;DHT22;30487;48.716;9.272;2022-07-17T15:27:40;31.70;44.30
44767;DHT22;30487;48.716;9.272;2022-07-17T15:30:06;31.70;44.20
44767;DHT22;30487;48.716;9.272;2022-07-17T15:32:32;31.70;45.20
44767;DHT22;30487;48.716;9.272;2022-07-17T15:34:59;31.70;45.00